Terminal Aerodrome Forecast
Issued by NWS

Home | Current Version | Previous Version | Text Only | Print | Product List | Glossary On
Versions: 1 2 3 4 5 6 7 8 9 10 11 12 13 14 15 16 17 18
000
FTUS46 KMTR 190545 AAA
TAFSTS
TAF AMD
KSTS 190545Z 1906/2006 13003KT 6SM FU OVC003
      TEMPO 1906/1909 2SM BR OVC001
     FM190900 00000KT 1/2SM FG OVC003
     FM191800 VRB03KT P6SM SKC
     FM200100 19008KT P6SM SCT007 BKN050 PROB30 2001/2004 -SHRA
      BKN035
     FM200400 20007KT P6SM -SHRA BKN035=

USA.gov is the U.S. government's official web portal to all federal, state and local government web resources and services.